Terminal Aerodrome Forecast
Issued by NWS

Home | Current Version | Previous Version | Text Only | Print | Product List | Glossary On
Versions: 1 2 3 4 5 6 7 8 9 10 11 12 13 14 15 16 17 18 19 20 21 22 23 24 25 26 27 28 29 30 31 32 33 34 35 36 37 38 39
000
FTUS46 KOTX 011139
TAFPUW
TAF
KPUW 011139Z 0112/0212 10008KT P6SM SCT070 OVC100
     FM011600 10010KT 6SM -SN OVC040
     FM011800 12008KT 3SM -SN OVC025
     FM012100 14006KT 3SM -SNRA OVC015
     FM020100 16006KT 4SM -RA OVC010
     FM020300 19007KT P6SM BKN020 OVC035=

USA.gov is the U.S. government's official web portal to all federal, state and local government web resources and services.